Time;durP1;ratioP1;P1;durP2;ratioP2;P2;SDS_P1;SDS_P2;PMS_P1;PMS_P2;Temp;Humidity;BMP_temperature;BMP_pressure;BME280_temperature;BME280_humidity;BME280_pressure;Samples;Min_cycle;Max_cycle;Signal;HPM_P1;HPM_P2
2023/12/31 00:00:16;;;;;;;1.95;1.23;;;;;;;8.18;100.00;100360.75;5035080;28;20413;-59
2023/12/31 00:02:42;;;;;;;1.95;1.60;;;;;;;8.17;100.00;100354.63;5034862;28;20037;-59
2023/12/31 00:05:07;;;;;;;1.50;1.40;;;;;;;8.20;100.00;100349.13;5036445;28;20036;-58
2023/12/31 00:07:33;;;;;;;6.82;2.08;;;;;;;8.19;100.00;100341.28;5034203;28;20386;-59
2023/12/31 00:09:58;;;;;;;2.25;1.55;;;;;;;8.25;100.00;100335.56;5037568;28;20059;-58
2023/12/31 00:12:24;;;;;;;2.28;1.85;;;;;;;8.24;100.00;100324.09;5030606;28;20053;-59
2023/12/31 00:14:49;;;;;;;4.13;1.90;;;;;;;8.24;100.00;100331.22;5032182;28;20028;-58
2023/12/31 00:17:15;;;;;;;2.30;1.70;;;;;;;8.23;100.00;100325.09;5033665;28;20049;-59
2023/12/31 00:19:40;;;;;;;3.83;1.48;;;;;;;8.29;100.00;100305.25;5035993;28;20017;-58
2023/12/31 00:22:06;;;;;;;1.60;1.40;;;;;;;8.28;100.00;100296.47;5033045;28;20026;-58
2023/12/31 00:24:31;;;;;;;4.85;1.50;;;;;;;8.31;100.00;100290.94;5041213;28;20017;-59
2023/12/31 00:26:56;;;;;;;2.10;1.40;;;;;;;8.35;100.00;100291.56;5032404;28;20025;-59
2023/12/31 00:29:22;;;;;;;2.88;1.35;;;;;;;8.33;100.00;100290.84;5036656;28;20402;-59
2023/12/31 00:31:47;;;;;;;2.05;1.60;;;;;;;8.34;100.00;100277.50;5035018;28;20110;-58
2023/12/31 00:34:13;;;;;;;3.25;1.48;;;;;;;8.35;100.00;100283.63;5012805;28;20150;-59
2023/12/31 00:36:38;;;;;;;2.60;1.23;;;;;;;8.32;100.00;100276.75;5035103;28;20056;-59
2023/12/31 00:39:03;;;;;;;1.38;1.27;;;;;;;8.38;100.00;100275.44;5031307;28;20033;-59
2023/12/31 00:41:29;;;;;;;3.42;1.45;;;;;;;8.38;100.00;100262.22;5034349;28;20628;-59
2023/12/31 00:43:54;;;;;;;2.13;1.40;;;;;;;8.42;100.00;100260.19;5033614;28;20446;-59
2023/12/31 00:46:19;;;;;;;3.15;1.30;;;;;;;8.36;100.00;100248.28;5033889;28;20060;-60
2023/12/31 00:48:45;;;;;;;2.08;1.30;;;;;;;8.39;100.00;100255.13;5030134;28;20030;-59
2023/12/31 00:51:10;;;;;;;3.95;1.50;;;;;;;8.36;100.00;100247.41;5032565;28;20091;-59
2023/12/31 00:53:36;;;;;;;1.60;1.40;;;;;;;8.35;100.00;100246.56;5015742;28;20017;-59
2023/12/31 00:56:01;;;;;;;2.25;1.42;;;;;;;8.31;100.00;100243.31;5025679;28;20073;-60
2023/12/31 00:58:26;;;;;;;1.63;1.30;;;;;;;8.33;100.00;100251.16;5035983;28;20107;-59
2023/12/31 01:00:52;;;;;;;2.88;1.52;;;;;;;8.31;100.00;100240.69;5035292;28;20037;-58
2023/12/31 01:03:17;;;;;;;6.05;1.67;;;;;;;8.30;100.00;100249.56;5040115;28;20025;-59
2023/12/31 01:05:42;;;;;;;2.28;1.48;;;;;;;8.31;100.00;100242.47;5033973;28;20491;-59
2023/12/31 01:08:08;;;;;;;3.58;1.30;;;;;;;8.28;100.00;100235.63;5023288;28;20037;-59
2023/12/31 01:10:33;;;;;;;2.55;1.40;;;;;;;8.26;100.00;100223.47;5044472;28;20090;-59
2023/12/31 01:12:59;;;;;;;2.22;1.33;;;;;;;8.28;100.00;100216.28;5035378;28;20037;-58
2023/12/31 01:15:24;;;;;;;1.25;1.13;;;;;;;8.29;100.00;100210.84;5038487;28;20025;-60
2023/12/31 01:17:49;;;;;;;2.10;1.23;;;;;;;8.33;100.00;100206.16;5037834;28;20380;-59
2023/12/31 01:20:15;;;;;;;1.38;1.27;;;;;;;8.28;100.00;100201.22;5037253;28;20025;-59
2023/12/31 01:22:40;;;;;;;2.72;1.40;;;;;;;8.28;100.00;100201.22;5037741;28;20124;-59
2023/12/31 01:25:06;;;;;;;2.65;1.40;;;;;;;8.27;100.00;100196.06;5036716;28;20028;-59
2023/12/31 01:27:31;;;;;;;1.20;1.20;;;;;;;8.28;100.00;100193.28;5034432;28;20486;-57
2023/12/31 01:29:56;;;;;;;2.17;1.48;;;;;;;8.26;100.00;100187.28;5038038;28;20048;-60
2023/12/31 01:32:22;;;;;;;3.78;1.55;;;;;;;8.25;100.00;100190.88;5035044;28;20025;-59
2023/12/31 01:34:47;;;;;;;2.10;1.35;;;;;;;8.24;100.00;100183.06;5036679;28;20133;-59
2023/12/31 01:37:12;;;;;;;2.17;1.27;;;;;;;8.22;100.00;100187.63;5036755;28;20023;-59
2023/12/31 01:39:37;;;;;;;1.92;1.30;;;;;;;8.20;100.00;100176.34;5033695;28;20159;-59
2023/12/31 01:42:03;;;;;;;2.28;1.63;;;;;;;8.18;100.00;100173.81;5038091;28;20022;-60
2023/12/31 01:44:28;;;;;;;3.72;1.25;;;;;;;8.19;100.00;100172.81;5039566;28;20029;-59
2023/12/31 01:46:54;;;;;;;2.30;1.42;;;;;;;8.16;100.00;100162.50;5019917;28;20112;-58
2023/12/31 01:49:21;;;;;;;2.05;1.35;;;;;;;8.21;100.00;100157.69;5034296;28;20080;-58
2023/12/31 01:51:46;;;;;;;3.88;1.40;;;;;;;8.19;100.00;100154.31;5031689;28;20014;-58
2023/12/31 01:54:12;;;;;;;4.45;1.60;;;;;;;8.19;100.00;100156.13;5035604;28;20074;-59
2023/12/31 01:56:39;;;;;;;3.08;1.52;;;;;;;8.19;100.00;100146.38;5029746;28;20029;-60
2023/12/31 01:59:06;;;;;;;3.22;1.73;;;;;;;8.20;100.00;100147.22;5037501;28;20029;-59
2023/12/31 02:01:32;;;;;;;3.97;1.42;;;;;;;8.15;100.00;100129.06;5037944;28;20053;-59
2023/12/31 02:03:58;;;;;;;5.10;1.50;;;;;;;8.19;100.00;100130.50;5042644;28;20036;-59
2023/12/31 02:06:24;;;;;;;2.55;1.38;;;;;;;8.18;100.00;100126.19;5041144;28;20037;-57
2023/12/31 02:08:49;;;;;;;2.40;1.40;;;;;;;8.15;100.00;100124.59;5037039;28;20406;-58
2023/12/31 02:11:16;;;;;;;3.83;1.55;;;;;;;8.13;100.00;100131.00;5037933;28;20021;-58
2023/12/31 02:13:41;;;;;;;3.78;1.63;;;;;;;8.13;100.00;100115.13;5038152;28;20033;-59
2023/12/31 02:16:14;;;;;;;1.50;1.33;;;;;;;8.13;100.00;100115.13;5039703;28;20079;-58
2023/12/31 02:18:40;;;;;;;1.77;1.50;;;;;;;8.13;100.00;100105.38;5034024;28;20112;-59
2023/12/31 02:21:05;;;;;;;2.28;1.50;;;;;;;8.11;100.00;100099.38;5040688;28;20022;-59
2023/12/31 02:23:30;;;;;;;2.25;1.85;;;;;;;8.11;100.00;100094.09;5036850;28;20100;-58
2023/12/31 02:26:10;;;;;;;3.30;1.63;;;;;;;8.17;100.00;100092.75;5038062;28;20048;-59
2023/12/31 02:28:36;;;;;;;2.45;1.80;;;;;;;8.12;100.00;100085.16;5040172;28;20482;-58
2023/12/31 02:31:03;;;;;;;1.77;1.40;;;;;;;8.11;100.00;100078.22;5036563;28;20040;-58
2023/12/31 02:33:28;;;;;;;2.80;1.65;;;;;;;8.12;100.00;100066.66;5038764;28;20026;-59
2023/12/31 02:35:53;;;;;;;2.30;1.90;;;;;;;8.09;100.00;100051.06;5033656;28;20544;-59
2023/12/31 02:38:18;;;;;;;3.22;1.60;;;;;;;8.12;100.00;100061.38;5038876;28;20033;-59
2023/12/31 02:40:44;;;;;;;3.38;1.80;;;;;;;8.11;100.00;100048.25;5033057;28;20027;-59
2023/12/31 02:43:09;;;;;;;2.70;1.55;;;;;;;8.13;100.00;100038.41;5036534;28;20037;-57
2023/12/31 02:45:35;;;;;;;2.97;1.40;;;;;;;8.10;100.00;100033.38;5035171;28;20028;-59
2023/12/31 02:48:00;;;;;;;2.83;1.67;;;;;;;8.09;100.00;100027.25;5039479;28;20025;-58
2023/12/31 02:50:25;;;;;;;3.35;1.60;;;;;;;8.08;100.00;100022.09;5031959;28;20021;-58
2023/12/31 02:52:53;;;;;;;1.77;1.60;;;;;;;8.08;100.00;100016.78;5038455;28;20029;-59
2023/12/31 02:55:21;;;;;;;3.80;1.83;;;;;;;8.09;100.00;100011.38;5035376;28;20390;-59
2023/12/31 02:57:47;;;;;;;2.78;1.83;;;;;;;8.10;100.00;100015.69;5037924;28;20031;-59
2023/12/31 03:00:12;;;;;;;1.88;1.40;;;;;;;8.10;100.00;100013.03;5035419;28;20115;-58
2023/12/31 03:02:40;;;;;;;6.13;1.60;;;;;;;8.08;100.00;100004.41;5019829;28;20072;-59
2023/12/31 03:05:07;;;;;;;3.00;1.70;;;;;;;8.09;100.00;99995.50;5035169;28;20030;-57
2023/12/31 03:07:33;;;;;;;3.88;1.77;;;;;;;8.11;100.00;99995.34;5036735;28;20086;-57
2023/12/31 03:09:58;;;;;;;2.75;1.65;;;;;;;8.10;100.00;99985.75;5039030;28;20029;-56
2023/12/31 03:12:23;;;;;;;1.63;1.52;;;;;;;8.13;100.00;99988.16;5038736;28;20039;-59
2023/12/31 03:14:48;;;;;;;2.83;1.60;;;;;;;8.11;100.00;99983.00;5038291;28;20049;-59
2023/12/31 03:17:14;;;;;;;3.60;1.42;;;;;;;8.13;100.00;99972.28;5039140;28;20056;-59
2023/12/31 03:19:39;;;;;;;1.85;1.52;;;;;;;8.12;100.00;99962.66;5033688;28;20094;-58
2023/12/31 03:22:05;;;;;;;7.40;1.88;;;;;;;8.11;100.00;99945.97;5032004;28;20087;-58
2023/12/31 03:24:30;;;;;;;2.72;1.55;;;;;;;8.10;100.00;99938.97;5037966;28;20021;-58
2023/12/31 03:26:55;;;;;;;2.85;1.52;;;;;;;8.12;100.00;99928.28;5036384;28;20040;-60
2023/12/31 03:29:21;;;;;;;2.92;1.80;;;;;;;8.13;100.00;99925.53;5037190;28;20033;-58
2023/12/31 03:31:46;;;;;;;2.33;1.90;;;;;;;8.14;100.00;99921.06;5035278;28;20049;-58
2023/12/31 03:34:12;;;;;;;2.78;1.80;;;;;;;8.16;100.00;99913.88;5034484;28;20497;-58
2023/12/31 03:36:37;;;;;;;2.17;1.40;;;;;;;8.18;100.00;99909.28;5036001;28;20021;-58
2023/12/31 03:39:02;;;;;;;3.85;1.60;;;;;;;8.17;100.00;99899.66;5032697;28;20116;-58
2023/12/31 03:41:28;;;;;;;1.85;1.63;;;;;;;8.19;100.00;99891.59;5035173;28;20034;-59
2023/12/31 03:43:53;;;;;;;2.70;1.55;;;;;;;8.19;100.00;99881.00;5035240;28;20042;-58
2023/12/31 03:46:20;;;;;;;3.50;1.70;;;;;;;8.22;100.00;99880.78;5034452;28;20047;-58
2023/12/31 03:48:45;;;;;;;1.92;1.58;;;;;;;8.21;100.00;99874.66;5035452;28;20111;-58
2023/12/31 03:51:11;;;;;;;2.72;1.80;;;;;;;8.22;100.00;99868.38;5038985;28;20167;-57
2023/12/31 03:53:36;;;;;;;1.95;1.60;;;;;;;8.22;100.00;99855.16;5039341;28;20085;-59
2023/12/31 03:56:02;;;;;;;2.15;1.60;;;;;;;8.23;100.00;99859.47;5039070;28;20175;-59
2023/12/31 03:58:27;;;;;;;1.50;1.40;;;;;;;8.22;100.00;99849.84;5034718;28;20067;-59
2023/12/31 04:00:52;;;;;;;2.33;1.85;;;;;;;8.25;100.00;99849.59;5034809;28;20032;-59
2023/12/31 04:03:18;;;;;;;1.85;1.65;;;;;;;8.26;100.00;99845.16;5035510;28;20033;-59
2023/12/31 04:05:43;;;;;;;2.80;1.90;;;;;;;8.28;100.00;99824.72;5038642;28;20166;-58
2023/12/31 04:08:08;;;;;;;2.55;1.70;;;;;;;8.25;100.00;99823.16;5031786;28;20064;-59
2023/12/31 04:10:33;;;;;;;1.67;1.58;;;;;;;8.27;100.00;99818.56;5042265;28;20025;-58
2023/12/31 04:12:59;;;;;;;1.90;1.50;;;;;;;8.27;100.00;99826.50;5034025;28;20026;-58
2023/12/31 04:15:24;;;;;;;2.05;1.75;;;;;;;8.28;100.00;99812.31;5035482;28;20052;-59
2023/12/31 04:17:51;;;;;;;3.60;1.83;;;;;;;8.28;100.00;99804.38;5035314;28;20057;-59
2023/12/31 04:20:16;;;;;;;1.90;1.80;;;;;;;8.29;100.00;99799.91;5038615;28;20500;-58
2023/12/31 04:22:42;;;;;;;3.05;1.73;;;;;;;8.32;100.00;99794.38;5036261;28;20064;-59
2023/12/31 04:25:07;;;;;;;3.17;1.60;;;;;;;8.29;100.00;99791.97;5036609;28;20022;-59
2023/12/31 04:27:35;;;;;;;2.25;1.60;;;;;;;8.27;100.00;99780.69;5039196;28;20027;-59
2023/12/31 04:30:01;;;;;;;3.28;1.80;;;;;;;8.24;100.00;99783.59;5032228;28;20595;-57
2023/12/31 04:32:26;;;;;;;3.30;1.70;;;;;;;8.22;100.00;99782.91;5032714;28;20112;-59
2023/12/31 04:34:51;;;;;;;2.00;1.90;;;;;;;8.19;100.00;99777.84;5040058;28;20052;-59
2023/12/31 04:37:16;;;;;;;2.00;1.73;;;;;;;8.20;100.00;99782.19;5038214;28;20078;-59
2023/12/31 04:39:42;;;;;;;2.88;1.60;;;;;;;8.15;100.00;99772.00;5038979;28;20167;-58
2023/12/31 04:42:07;;;;;;;2.13;1.95;;;;;;;8.15;100.00;99775.47;5037790;28;20025;-58
2023/12/31 04:44:32;;;;;;;2.35;1.80;;;;;;;8.15;100.00;99764.88;5035569;28;20033;-58
2023/12/31 04:46:58;;;;;;;3.65;1.75;;;;;;;8.12;100.00;99759.84;5036023;28;20156;-59
2023/12/31 04:49:23;;;;;;;3.08;1.75;;;;;;;8.11;100.00;99752.03;5038534;28;20474;-56
2023/12/31 04:51:48;;;;;;;1.95;1.80;;;;;;;8.09;100.00;99760.13;5035209;28;20037;-59
2023/12/31 04:54:14;;;;;;;1.90;1.80;;;;;;;8.09;100.00;99749.56;5041718;28;20447;-59
2023/12/31 04:56:39;;;;;;;3.20;1.92;;;;;;;8.10;100.00;99738.00;5034629;28;20029;-59
2023/12/31 04:59:04;;;;;;;1.88;1.77;;;;;;;8.15;100.00;99740.25;5019039;28;20021;-59
2023/12/31 05:01:33;;;;;;;2.47;2.05;;;;;;;8.14;100.00;99738.56;5036961;28;20021;-59
2023/12/31 05:03:59;;;;;;;2.10;1.90;;;;;;;8.13;100.00;99719.22;5036215;28;20029;-58
2023/12/31 05:06:25;;;;;;;2.00;1.90;;;;;;;8.12;100.00;99736.03;5042564;28;20029;-59
2023/12/31 05:08:51;;;;;;;4.00;1.95;;;;;;;8.12;100.00;99717.53;5041847;28;20075;-59
2023/12/31 05:11:17;;;;;;;1.70;1.60;;;;;;;8.16;100.00;99710.19;5038086;28;20159;-57
2023/12/31 05:13:43;;;;;;;2.05;1.80;;;;;;;8.15;100.00;99712.00;5040042;28;20038;-59
2023/12/31 05:16:13;;;;;;;2.25;2.00;;;;;;;8.18;100.00;99710.91;5037654;28;20088;-59
2023/12/31 05:18:50;;;;;;;2.95;2.05;;;;;;;8.19;100.00;99707.28;5032901;28;20037;-59
2023/12/31 05:21:16;;;;;;;2.63;2.30;;;;;;;8.23;100.00;99700.78;5035842;28;20037;-58
2023/12/31 05:23:41;;;;;;;2.20;2.00;;;;;;;8.21;100.00;99684.19;5025394;28;20029;-58
2023/12/31 05:26:07;;;;;;;2.70;2.10;;;;;;;8.21;100.00;99678.91;5036524;28;20040;-58
2023/12/31 05:28:32;;;;;;;2.55;2.00;;;;;;;8.22;100.00;99691.16;5039717;28;20068;-59
2023/12/31 05:30:57;;;;;;;2.00;1.90;;;;;;;8.23;100.00;99676.97;5040577;28;20101;-59
2023/12/31 05:33:23;;;;;;;2.20;2.03;;;;;;;8.24;100.00;99681.25;5040039;28;20100;-59
2023/12/31 05:35:48;;;;;;;2.35;1.90;;;;;;;8.27;100.00;99657.19;5023342;28;20057;-57
2023/12/31 05:38:14;;;;;;;3.30;1.90;;;;;;;8.27;100.00;99664.31;5039703;28;20029;-59
2023/12/31 05:40:39;;;;;;;4.78;2.30;;;;;;;8.28;100.00;99663.34;5035194;28;20044;-58
2023/12/31 05:43:05;;;;;;;4.50;2.20;;;;;;;8.26;100.00;99657.31;5041889;28;20080;-58
2023/12/31 05:45:30;;;;;;;2.33;2.13;;;;;;;8.27;100.00;99651.91;5038967;28;20032;-58
2023/12/31 05:47:56;;;;;;;2.33;2.10;;;;;;;8.27;100.00;99643.97;5039242;28;20022;-59
2023/12/31 05:50:21;;;;;;;3.10;2.20;;;;;;;8.30;100.00;99634.94;5035717;28;20041;-59
2023/12/31 05:52:46;;;;;;;2.20;2.00;;;;;;;8.30;100.00;99632.31;5045654;28;20112;-59
2023/12/31 05:55:12;;;;;;;2.70;2.50;;;;;;;8.30;100.00;99629.66;5040822;28;20052;-58
2023/12/31 05:57:38;;;;;;;4.30;2.00;;;;;;;8.31;100.00;99626.88;5035480;28;20029;-58
2023/12/31 06:00:05;;;;;;;2.75;1.98;;;;;;;8.30;100.00;99638.41;5036988;28;20083;-59
2023/12/31 06:02:31;;;;;;;3.00;2.20;;;;;;;8.32;100.00;99633.00;5038506;28;20479;-59
2023/12/31 06:04:56;;;;;;;3.38;2.20;;;;;;;8.31;100.00;99628.66;5039845;28;20030;-59
2023/12/31 06:07:22;;;;;;;2.03;1.92;;;;;;;8.31;100.00;99623.38;5036685;28;20029;-59
2023/12/31 06:09:47;;;;;;;2.00;1.90;;;;;;;8.33;100.00;99619.63;5037892;28;20017;-59
2023/12/31 06:12:12;;;;;;;2.25;2.08;;;;;;;8.32;100.00;99606.53;5042059;28;20026;-58
2023/12/31 06:14:37;;;;;;;2.50;2.30;;;;;;;8.34;100.00;99616.03;5035546;28;20025;-59
2023/12/31 06:17:03;;;;;;;2.50;2.30;;;;;;;8.34;100.00;99604.59;5037033;28;20094;-58
2023/12/31 06:19:28;;;;;;;2.30;2.10;;;;;;;8.31;100.00;99602.22;5038034;28;20514;-59
2023/12/31 06:21:53;;;;;;;2.85;2.42;;;;;;;8.33;100.00;99597.66;5036278;28;20109;-57
2023/12/31 06:24:18;;;;;;;2.65;2.10;;;;;;;8.35;100.00;99601.00;5041113;28;20509;-59
2023/12/31 06:26:44;;;;;;;2.50;2.30;;;;;;;8.34;100.00;99589.56;5034781;28;20036;-58
2023/12/31 06:29:09;;;;;;;2.25;2.03;;;;;;;8.37;100.00;99587.63;5017102;28;20021;-59
2023/12/31 06:31:35;;;;;;;2.30;2.08;;;;;;;8.37;100.00;99577.03;5034384;28;21183;-58
2023/12/31 06:34:00;;;;;;;2.33;2.13;;;;;;;8.39;100.00;99575.09;5039186;28;20030;-58
2023/12/31 06:36:26;;;;;;;2.60;2.20;;;;;;;8.40;100.00;99572.31;5035596;28;20029;-59
2023/12/31 06:38:51;;;;;;;2.00;1.90;;;;;;;8.44;100.00;99563.19;5040849;28;20509;-59
2023/12/31 06:41:19;;;;;;;3.53;2.13;;;;;;;8.50;100.00;99545.91;5040151;28;20029;-58
2023/12/31 06:43:44;;;;;;;2.03;1.90;;;;;;;8.52;100.00;99543.97;5035446;28;20032;-57
2023/12/31 06:46:10;;;;;;;2.20;2.00;;;;;;;8.59;100.00;99546.91;5039270;28;20026;-57
2023/12/31 06:48:35;;;;;;;2.35;2.15;;;;;;;8.66;99.35;99542.72;5035807;28;20033;-58
2023/12/31 06:51:00;;;;;;;3.88;2.30;;;;;;;8.65;99.13;99536.59;5034468;28;20486;-58
2023/12/31 06:53:26;;;;;;;2.20;2.00;;;;;;;8.70;99.09;99537.03;5033696;28;20044;-58
2023/12/31 06:55:51;;;;;;;2.47;2.28;;;;;;;8.73;99.08;99533.28;5032692;28;20091;-58
2023/12/31 06:58:16;;;;;;;2.42;2.22;;;;;;;8.77;98.61;99528.53;5029940;28;20033;-56
2023/12/31 07:00:41;;;;;;;2.10;2.00;;;;;;;8.81;98.41;99521.97;5034860;28;20039;-58
2023/12/31 07:03:07;;;;;;;2.70;2.22;;;;;;;8.83;98.45;99518.22;5034012;28;20541;-56
2023/12/31 07:05:32;;;;;;;3.28;2.13;;;;;;;8.87;98.37;99532.03;5034479;28;20072;-57
2023/12/31 07:07:57;;;;;;;2.70;2.15;;;;;;;8.88;98.18;99517.81;5036951;28;20438;-57
2023/12/31 07:10:23;;;;;;;4.05;1.90;;;;;;;8.92;97.80;99521.84;5036629;28;20348;-57
2023/12/31 07:12:48;;;;;;;2.33;2.13;;;;;;;8.91;98.29;99501.66;5035036;28;20120;-58
2023/12/31 07:15:15;;;;;;;2.10;1.90;;;;;;;8.94;97.98;99511.94;5033127;28;20479;-58
2023/12/31 07:17:41;;;;;;;2.30;2.10;;;;;;;9.00;97.65;99486.72;5034815;28;20571;-59
2023/12/31 07:20:07;;;;;;;2.63;2.20;;;;;;;9.01;97.39;99483.94;5038377;28;20104;-59
2023/12/31 07:22:32;;;;;;;3.42;2.30;;;;;;;9.01;97.35;99477.78;5028642;28;20033;-59
2023/12/31 07:25:00;;;;;;;3.80;2.20;;;;;;;9.04;96.86;99473.06;5027010;28;20398;-61
2023/12/31 07:27:25;;;;;;;2.47;2.10;;;;;;;9.10;96.80;99476.97;5029946;28;20482;-61
2023/12/31 07:29:51;;;;;;;2.75;2.15;;;;;;;9.16;96.48;99475.53;5028244;28;20036;-60
2023/12/31 07:32:16;;;;;;;1.92;1.83;;;;;;;9.16;96.23;99471.09;5016736;28;20035;-58
2023/12/31 07:34:41;;;;;;;2.30;2.10;;;;;;;9.17;96.20;99466.63;5033838;28;20030;-60
2023/12/31 07:37:06;;;;;;;2.90;2.08;;;;;;;9.18;96.33;99471.78;5035501;28;20498;-59
2023/12/31 07:39:32;;;;;;;2.25;2.05;;;;;;;9.17;96.60;99467.44;5030903;28;20037;-60
2023/12/31 07:41:58;;;;;;;3.47;2.20;;;;;;;9.16;96.51;99472.91;5034589;28;20033;-59
2023/12/31 07:44:23;;;;;;;3.15;1.90;;;;;;;9.16;96.44;99464.94;5035652;28;20017;-60
2023/12/31 07:46:49;;;;;;;2.40;2.20;;;;;;;9.14;96.94;99459.78;5037414;28;20075;-58
2023/12/31 07:49:14;;;;;;;3.08;2.10;;;;;;;9.17;96.38;99450.72;5030153;28;20530;-59
2023/12/31 07:51:39;;;;;;;2.55;2.20;;;;;;;9.19;96.27;99457.56;5033408;28;20032;-60
2023/12/31 07:54:04;;;;;;;3.58;2.30;;;;;;;9.21;96.76;99455.63;5029983;28;20025;-60
2023/12/31 07:56:30;;;;;;;3.33;2.50;;;;;;;9.22;97.00;99459.91;5038692;28;20082;-59
2023/12/31 07:58:55;;;;;;;2.38;2.03;;;;;;;9.21;97.50;99444.19;5038534;28;20033;-59
2023/12/31 08:01:20;;;;;;;2.40;2.20;;;;;;;9.22;98.01;99444.03;5038729;28;20369;-60
2023/12/31 08:03:45;;;;;;;2.15;1.95;;;;;;;9.22;98.25;99443.19;5031618;28;20080;-59
2023/12/31 08:06:11;;;;;;;2.60;2.30;;;;;;;9.25;98.40;99440.25;5033745;28;20052;-58
2023/12/31 08:08:36;;;;;;;3.35;1.83;;;;;;;9.23;98.56;99437.75;5036553;28;20037;-59
2023/12/31 08:11:01;;;;;;;2.40;2.20;;;;;;;9.25;97.81;99445.56;5035455;28;20025;-60
2023/12/31 08:13:27;;;;;;;3.40;2.55;;;;;;;9.27;97.95;99435.66;5033440;28;20030;-60
2023/12/31 08:15:53;;;;;;;3.10;2.28;;;;;;;9.28;97.86;99437.31;5036723;28;20083;-60
2023/12/31 08:18:19;;;;;;;2.47;2.28;;;;;;;9.30;97.99;99432.72;5032240;28;20044;-60
2023/12/31 08:20:44;;;;;;;3.17;2.22;;;;;;;9.32;98.29;99435.22;5033555;28;20033;-60
2023/12/31 08:23:10;;;;;;;2.00;1.80;;;;;;;9.26;100.00;99440.13;5030800;28;20036;-60
2023/12/31 08:25:35;;;;;;;2.22;2.00;;;;;;;9.29;100.00;99440.81;5037504;28;20497;-60
2023/12/31 08:28:00;;;;;;;2.45;2.17;;;;;;;9.23;100.00;99447.53;5032407;28;20441;-60
2023/12/31 08:30:26;;;;;;;2.47;2.28;;;;;;;9.25;100.00;99442.91;5031960;28;20056;-60
2023/12/31 08:32:51;;;;;;;2.03;1.90;;;;;;;9.22;100.00;99440.53;5031788;28;20360;-59
2023/12/31 08:35:17;;;;;;;2.60;2.08;;;;;;;9.16;100.00;99439.31;5039070;28;20060;-60
2023/12/31 08:37:43;;;;;;;2.28;2.08;;;;;;;9.12;100.00;99432.63;5033006;28;20026;-60
2023/12/31 08:40:10;;;;;;;2.20;2.00;;;;;;;9.09;100.00;99430.25;5033264;28;20061;-60
2023/12/31 08:42:35;;;;;;;2.95;2.42;;;;;;;9.05;100.00;99434.16;5031084;28;20022;-59
2023/12/31 08:45:03;;;;;;;2.60;2.40;;;;;;;9.01;100.00;99438.91;5037099;28;20025;-60
2023/12/31 08:47:28;;;;;;;2.78;2.45;;;;;;;8.96;100.00;99435.88;5033257;28;20091;-60
2023/12/31 08:49:54;;;;;;;3.10;2.75;;;;;;;8.94;100.00;99444.91;5031277;28;20478;-60
2023/12/31 08:52:20;;;;;;;2.60;2.40;;;;;;;8.94;100.00;99431.69;5028030;28;20028;-60
2023/12/31 08:54:46;;;;;;;3.85;2.10;;;;;;;8.90;100.00;99428.47;5031318;28;20025;-60
2023/12/31 08:57:11;;;;;;;2.33;2.13;;;;;;;8.82;100.00;99428.34;5034338;28;20120;-60
2023/12/31 08:59:37;;;;;;;3.58;2.60;;;;;;;8.78;100.00;99441.03;5032647;28;20045;-60
2023/12/31 09:02:02;;;;;;;2.75;2.08;;;;;;;8.79;100.00;99447.16;5029767;28;20032;-60
2023/12/31 09:04:33;;;;;;;2.08;1.98;;;;;;;8.72;100.00;99438.13;5035034;28;20030;-60
2023/12/31 09:06:59;;;;;;;2.25;2.05;;;;;;;8.65;100.00;99438.66;5031816;28;20033;-61
2023/12/31 09:09:24;;;;;;;3.08;2.28;;;;;;;8.62;100.00;99443.41;5034608;28;20032;-60
2023/12/31 09:11:49;;;;;;;2.40;2.20;;;;;;;8.59;100.00;99448.97;5036053;28;20462;-61
2023/12/31 09:14:15;;;;;;;2.38;2.17;;;;;;;8.58;100.00;99461.38;5035202;28;20088;-60
2023/12/31 09:16:40;;;;;;;2.95;1.80;;;;;;;8.54;100.00;99462.63;5032511;28;20050;-60
2023/12/31 09:19:05;;;;;;;2.17;1.90;;;;;;;8.51;100.00;99458.47;5032664;28;20033;-61
2023/12/31 09:21:31;;;;;;;1.88;1.77;;;;;;;8.53;100.00;99447.72;5033592;28;20027;-60
2023/12/31 09:23:56;;;;;;;1.67;1.58;;;;;;;8.52;100.00;99459.28;5037664;28;20414;-60
2023/12/31 09:26:21;;;;;;;2.15;1.90;;;;;;;8.50;100.00;99461.25;5036769;28;20049;-60
2023/12/31 09:28:48;;;;;;;2.00;1.80;;;;;;;8.50;100.00;99458.59;5039904;28;20037;-59
2023/12/31 09:31:14;;;;;;;1.63;1.52;;;;;;;8.48;100.00;99464.03;5033842;28;20548;-59
2023/12/31 09:33:39;;;;;;;2.22;1.80;;;;;;;8.47;100.00;99467.63;5036561;28;20026;-60
2023/12/31 09:36:05;;;;;;;2.58;1.40;;;;;;;8.48;100.00;99473.78;5036714;28;20025;-59
2023/12/31 09:38:30;;;;;;;1.98;1.30;;;;;;;8.51;100.00;99484.09;5033118;28;20037;-59
2023/12/31 09:40:56;;;;;;;1.48;1.30;;;;;;;8.50;100.00;99482.41;5017408;28;20052;-60
2023/12/31 09:43:22;;;;;;;1.30;1.20;;;;;;;8.49;100.00;99481.59;5035689;28;20033;-60
2023/12/31 09:45:48;;;;;;;2.88;1.33;;;;;;;8.52;100.00;99481.28;5043232;28;20471;-58
2023/12/31 09:48:15;;;;;;;2.83;1.25;;;;;;;8.53;100.00;99500.66;5037947;28;20030;-59
2023/12/31 09:50:41;;;;;;;3.40;1.50;;;;;;;8.51;100.00;99492.84;5035000;28;20022;-60
2023/12/31 09:53:08;;;;;;;1.98;1.20;;;;;;;8.49;100.00;99493.94;5037849;28;20304;-60
2023/12/31 09:55:34;;;;;;;2.47;1.30;;;;;;;8.50;100.00;99504.41;5036391;28;20223;-60
2023/12/31 09:58:00;;;;;;;1.20;1.00;;;;;;;8.54;100.00;99501.50;5030797;28;20478;-60
2023/12/31 10:00:26;;;;;;;1.92;1.48;;;;;;;8.54;100.00;99501.50;5032715;28;20043;-60
2023/12/31 10:02:51;;;;;;;1.98;1.30;;;;;;;8.54;100.00;99504.13;5034975;28;20021;-60
2023/12/31 10:05:20;;;;;;;2.20;1.35;;;;;;;8.56;100.00;99512.75;5035865;28;20065;-60
2023/12/31 10:07:46;;;;;;;4.60;1.50;;;;;;;8.57;100.00;99501.22;5029698;28;20033;-61
2023/12/31 10:10:14;;;;;;;3.03;1.30;;;;;;;8.56;100.00;99494.25;5039093;28;20485;-60
2023/12/31 10:12:39;;;;;;;1.75;1.13;;;;;;;8.59;100.00;99488.69;5033945;28;20486;-60
2023/12/31 10:15:07;;;;;;;2.13;1.10;;;;;;;8.59;100.00;99493.97;5038128;28;20029;-60
2023/12/31 10:17:32;;;;;;;1.67;1.27;;;;;;;8.62;100.00;99497.16;5036336;28;20059;-59
2023/12/31 10:19:58;;;;;;;2.10;1.35;;;;;;;8.62;100.00;99493.69;5032808;28;20057;-60
2023/12/31 10:22:24;;;;;;;2.67;1.25;;;;;;;8.61;100.00;99498.16;5035410;28;20033;-60
2023/12/31 10:24:49;;;;;;;3.83;1.20;;;;;;;8.61;100.00;99510.53;5037479;28;20061;-60
2023/12/31 10:27:15;;;;;;;1.83;1.50;;;;;;;8.57;100.00;99503.88;5035883;28;20118;-61
2023/12/31 10:29:40;;;;;;;2.33;1.20;;;;;;;8.50;100.00;99493.81;5014029;28;20018;-60
2023/12/31 10:32:06;;;;;;;2.85;1.27;;;;;;;8.45;100.00;99505.81;5032648;28;20033;-61
2023/12/31 10:34:32;;;;;;;3.20;1.50;;;;;;;8.38;100.00;99508.13;5034494;28;20026;-60
2023/12/31 10:37:05;;;;;;;1.90;1.30;;;;;;;8.32;100.00;99506.00;5039335;28;20045;-60
2023/12/31 10:39:38;;;;;;;2.13;1.38;;;;;;;8.31;100.00;99513.13;5032648;28;20030;-60
2023/12/31 10:42:05;;;;;;;5.25;1.50;;;;;;;8.24;100.00;99521.72;5034817;28;20049;-61
2023/12/31 10:44:36;;;;;;;2.72;1.10;;;;;;;8.15;100.00;99504.88;5034264;28;20025;-61
2023/12/31 10:47:09;;;;;;;2.13;1.17;;;;;;;8.11;100.00;99508.72;5030785;28;20037;-62
2023/12/31 10:49:35;;;;;;;4.22;1.48;;;;;;;8.06;100.00;99511.81;5028057;28;20033;-61
2023/12/31 10:52:04;;;;;;;5.07;1.70;;;;;;;8.04;100.00;99512.91;5031901;28;20036;-61
2023/12/31 10:54:36;;;;;;;5.82;1.75;;;;;;;8.03;100.00;99500.66;5034907;28;20061;-61
2023/12/31 10:57:03;;;;;;;3.50;1.25;;;;;;;8.01;100.00;99494.66;5034428;28;20391;-60
2023/12/31 10:59:30;;;;;;;3.30;1.50;;;;;;;8.04;100.00;99502.31;5031826;28;20025;-60
2023/12/31 11:01:56;;;;;;;1.95;1.30;;;;;;;8.06;100.00;99489.78;5037159;28;20385;-60
2023/12/31 11:04:26;;;;;;;3.45;1.35;;;;;;;8.09;100.00;99492.16;5035035;28;20032;-60
2023/12/31 11:06:52;;;;;;;2.53;1.20;;;;;;;8.12;100.00;99511.25;5036437;28;20409;-59
2023/12/31 11:09:18;;;;;;;3.33;1.30;;;;;;;8.15;100.00;99518.09;5038915;28;20091;-61
2023/12/31 11:11:43;;;;;;;2.97;1.40;;;;;;;8.18;100.00;99506.38;5036087;28;20040;-60
2023/12/31 11:14:12;;;;;;;3.08;1.30;;;;;;;8.21;100.00;99498.19;5039997;28;20017;-60
2023/12/31 11:17:03;;;;;;;3.72;1.40;;;;;;;8.26;100.00;99527.72;5032493;28;20037;-60
2023/12/31 11:19:55;;;;;;;3.63;1.10;;;;;;;8.31;100.00;99512.25;5032495;28;20114;-60
2023/12/31 11:22:35;;;;;;;1.52;1.13;;;;;;;8.38;100.00;99517.88;5035065;28;20116;-60
2023/12/31 11:25:03;;;;;;;4.68;1.20;;;;;;;8.43;100.00;99515.69;5036944;28;20497;-60